Time;durP1;ratioP1;P1;durP2;ratioP2;P2;SDS_P1;SDS_P2;PMS_P1;PMS_P2;Temp;Humidity;BMP_temperature;BMP_pressure;BME280_temperature;BME280_humidity;BME280_pressure;Samples;Min_cycle;Max_cycle;Signal;HPM_P1;HPM_P2
2021/08/19 00:02:12;;;;;;;1.30;0.73;;;19.60;99.90;;;;;;5090774;28;20223;-61
2021/08/19 00:04:39;;;;;;;2.10;0.88;;;19.60;99.90;;;;;;5090635;28;20725;-61
2021/08/19 00:07:06;;;;;;;1.10;1.00;;;19.50;99.90;;;;;;5090944;28;20212;-60
2021/08/19 00:09:33;;;;;;;1.00;0.98;;;19.50;99.90;;;;;;5090903;28;20221;-61
2021/08/19 00:12:00;;;;;;;1.20;0.80;;;19.60;99.90;;;;;;5091120;28;20207;-60
2021/08/19 00:14:27;;;;;;;2.38;0.90;;;19.50;99.90;;;;;;5090632;28;20592;-60
2021/08/19 00:16:54;;;;;;;1.23;0.75;;;19.50;99.90;;;;;;5090664;28;20200;-61
2021/08/19 00:19:22;;;;;;;1.02;0.90;;;19.40;99.90;;;;;;5090599;28;20227;-60
2021/08/19 00:21:48;;;;;;;1.23;0.80;;;19.30;99.90;;;;;;5090686;28;20694;-60
2021/08/19 00:24:15;;;;;;;2.45;0.80;;;19.30;99.90;;;;;;5090646;28;20204;-61
2021/08/19 00:26:42;;;;;;;1.95;0.95;;;19.40;99.90;;;;;;5090619;28;20212;-60
2021/08/19 00:29:08;;;;;;;1.02;0.80;;;19.40;99.90;;;;;;5090386;28;20228;-60
2021/08/19 00:31:35;;;;;;;0.90;0.77;;;19.40;99.90;;;;;;5090759;28;20257;-61
2021/08/19 00:34:01;;;;;;;1.05;0.95;;;19.40;99.90;;;;;;5090796;28;20208;-65
2021/08/19 00:36:30;;;;;;;1.27;0.90;;;19.40;99.90;;;;;;5090675;28;20204;-62
2021/08/19 00:38:57;;;;;;;1.10;1.00;;;19.40;99.90;;;;;;5090287;28;20564;-61
2021/08/19 00:41:24;;;;;;;1.77;0.90;;;19.30;99.90;;;;;;5090476;28;20215;-62
2021/08/19 00:43:51;;;;;;;1.10;0.90;;;19.30;99.90;;;;;;5090464;28;20249;-61
2021/08/19 00:46:29;;;;;;;1.00;0.75;;;19.30;99.90;;;;;;5090645;28;20200;-62
2021/08/19 00:49:02;;;;;;;1.23;1.00;;;19.30;99.90;;;;;;5090263;28;20243;-64
2021/08/19 00:51:38;;;;;;;0.77;0.77;;;19.30;99.90;;;;;;5090471;28;20207;-63
2021/08/19 00:54:07;;;;;;;1.33;0.85;;;19.30;99.90;;;;;;5090141;28;20207;-61
2021/08/19 00:56:35;;;;;;;1.00;0.90;;;19.30;99.90;;;;;;5090620;28;20232;-60
2021/08/19 00:59:02;;;;;;;1.80;0.90;;;19.30;99.90;;;;;;5091457;28;20250;-63
2021/08/19 01:01:29;;;;;;;0.77;0.70;;;19.30;99.90;;;;;;5094105;28;20675;-63
2021/08/19 01:03:56;;;;;;;1.77;1.00;;;19.20;99.90;;;;;;5093851;28;20672;-63
2021/08/19 01:06:22;;;;;;;2.67;1.10;;;19.30;99.90;;;;;;5093907;28;20232;-62
2021/08/19 01:08:51;;;;;;;1.00;0.90;;;19.30;99.90;;;;;;5093815;28;20228;-62
2021/08/19 01:11:19;;;;;;;1.10;1.00;;;19.30;99.90;;;;;;5093679;28;20584;-62
2021/08/19 01:13:46;;;;;;;1.10;0.93;;;19.30;99.90;;;;;;5093889;28;20459;-62
2021/08/19 01:16:12;;;;;;;0.98;0.70;;;19.20;99.90;;;;;;5093918;28;20576;-62
2021/08/19 01:18:41;;;;;;;1.80;0.90;;;19.30;99.90;;;;;;5093463;28;20234;-62
2021/08/19 01:21:08;;;;;;;0.98;0.90;;;19.20;99.90;;;;;;5093530;28;20675;-64
2021/08/19 01:23:34;;;;;;;1.00;0.90;;;19.20;99.90;;;;;;5093555;28;20294;-62
2021/08/19 01:26:07;;;;;;;1.10;0.93;;;19.20;99.90;;;;;;5093758;28;20212;-62
2021/08/19 01:28:36;;;;;;;0.65;0.65;;;19.20;99.90;;;;;;5093445;28;20312;-61
2021/08/19 01:31:02;;;;;;;1.30;1.05;;;19.20;99.90;;;;;;5093532;28;20204;-62
2021/08/19 01:33:30;;;;;;;1.33;1.00;;;19.20;99.90;;;;;;5093199;28;20200;-62
2021/08/19 01:35:57;;;;;;;0.90;0.73;;;19.30;99.90;;;;;;5093605;28;20208;-61
2021/08/19 01:38:29;;;;;;;1.40;1.05;;;19.30;99.90;;;;;;5093439;28;20239;-62
2021/08/19 01:40:56;;;;;;;1.48;0.63;;;19.20;99.90;;;;;;5093474;28;20315;-63
2021/08/19 01:43:24;;;;;;;1.48;0.90;;;19.20;99.90;;;;;;5093215;28;20212;-64
2021/08/19 01:45:53;;;;;;;0.93;0.90;;;19.20;99.90;;;;;;5093406;28;20211;-62
2021/08/19 01:48:20;;;;;;;1.20;0.77;;;19.20;99.90;;;;;;5093287;28;20259;-60
2021/08/19 01:50:47;;;;;;;2.88;1.00;;;19.20;99.90;;;;;;5093332;28;20249;-62
2021/08/19 01:53:13;;;;;;;2.28;0.77;;;19.30;99.90;;;;;;5093099;28;20300;-63
2021/08/19 01:55:40;;;;;;;3.20;0.77;;;19.30;99.90;;;;;;5093404;28;20204;-63
2021/08/19 01:58:07;;;;;;;1.30;0.90;;;19.30;99.90;;;;;;5092663;28;20711;-63
2021/08/19 02:00:34;;;;;;;2.63;1.08;;;19.20;99.90;;;;;;5092785;28;20216;-62
2021/08/19 02:03:02;;;;;;;0.98;0.80;;;19.20;99.90;;;;;;5093072;28;20265;-63
2021/08/19 02:05:29;;;;;;;0.70;0.63;;;19.20;99.90;;;;;;5092900;28;20200;-62
2021/08/19 02:07:55;;;;;;;1.67;0.82;;;19.20;99.90;;;;;;5092759;28;20231;-62
2021/08/19 02:10:22;;;;;;;1.90;0.93;;;19.20;99.90;;;;;;5091652;28;20672;-63
2021/08/19 02:12:49;;;;;;;1.10;1.00;;;19.20;99.90;;;;;;5092673;28;20201;-63
2021/08/19 02:15:16;;;;;;;1.42;1.00;;;19.20;99.90;;;;;;5092288;28;20204;-63
2021/08/19 02:17:42;;;;;;;1.92;1.08;;;19.30;99.90;;;;;;5092670;28;20235;-61
2021/08/19 02:20:11;;;;;;;3.00;1.10;;;19.30;99.90;;;;;;5092612;28;20231;-61
2021/08/19 02:22:38;;;;;;;1.45;1.10;;;19.30;99.90;;;;;;5092575;28;20204;-62
2021/08/19 02:25:05;;;;;;;2.08;1.40;;;19.20;99.90;;;;;;5092273;28;20581;-61
2021/08/19 02:27:32;;;;;;;1.60;1.50;;;19.20;99.90;;;;;;5092467;28;20228;-60
2021/08/19 02:29:59;;;;;;;1.63;1.52;;;19.20;99.90;;;;;;5092384;28;20208;-62
2021/08/19 02:32:26;;;;;;;1.30;1.02;;;19.20;99.90;;;;;;5092197;28;20215;-62
2021/08/19 02:34:53;;;;;;;1.20;1.10;;;19.20;99.90;;;;;;5092329;28;20212;-61
2021/08/19 02:37:21;;;;;;;0.90;0.90;;;19.20;99.90;;;;;;5092224;28;20208;-63
2021/08/19 02:39:47;;;;;;;1.02;0.80;;;19.20;99.90;;;;;;5092090;28;20277;-62
2021/08/19 02:42:14;;;;;;;1.73;1.40;;;19.20;99.90;;;;;;5092195;28;20625;-62
2021/08/19 02:44:41;;;;;;;1.48;1.05;;;19.20;99.90;;;;;;5092141;28;20208;-62
2021/08/19 02:47:08;;;;;;;1.23;1.13;;;19.20;99.90;;;;;;5092092;28;20212;-62
2021/08/19 02:49:35;;;;;;;1.23;1.13;;;19.20;99.90;;;;;;5091705;28;20709;-62
2021/08/19 02:52:01;;;;;;;1.45;1.10;;;19.20;99.90;;;;;;5091857;28;20715;-63
2021/08/19 02:54:29;;;;;;;1.95;1.30;;;19.10;99.90;;;;;;5091705;28;20212;-62
2021/08/19 02:56:56;;;;;;;1.77;1.08;;;19.20;99.90;;;;;;5091559;28;20215;-62
2021/08/19 02:59:23;;;;;;;1.92;1.65;;;19.20;99.90;;;;;;5091574;28;20700;-61
2021/08/19 03:01:49;;;;;;;1.90;1.40;;;19.20;99.90;;;;;;5091821;28;20212;-61
2021/08/19 03:04:16;;;;;;;3.28;1.90;;;19.20;99.90;;;;;;5091734;28;20204;-63
2021/08/19 03:06:43;;;;;;;3.63;1.50;;;19.20;99.90;;;;;;5091646;28;20212;-62
2021/08/19 03:09:09;;;;;;;1.98;1.50;;;19.20;99.90;;;;;;5091399;28;20239;-61
2021/08/19 03:11:37;;;;;;;1.67;1.58;;;19.10;99.90;;;;;;5091303;28;20261;-62
2021/08/19 03:14:04;;;;;;;2.78;1.60;;;19.10;99.90;;;;;;5091413;28;20208;-62
2021/08/19 03:16:31;;;;;;;2.08;1.65;;;19.10;99.90;;;;;;5091602;28;20601;-63
2021/08/19 03:18:58;;;;;;;2.97;1.60;;;19.20;99.90;;;;;;5091329;28;20727;-61
2021/08/19 03:21:25;;;;;;;2.28;1.60;;;19.10;99.90;;;;;;5091118;28;20224;-62
2021/08/19 03:23:52;;;;;;;1.70;1.60;;;19.10;99.90;;;;;;5091112;28;20249;-62
2021/08/19 03:26:19;;;;;;;2.35;1.55;;;19.10;99.90;;;;;;5091543;28;20204;-62
2021/08/19 03:28:47;;;;;;;1.60;1.50;;;19.10;99.90;;;;;;5091335;28;20529;-63
2021/08/19 03:31:14;;;;;;;2.10;1.70;;;19.10;99.90;;;;;;5091373;28;20543;-62
2021/08/19 03:33:42;;;;;;;1.65;1.20;;;19.20;99.90;;;;;;5091219;28;20207;-61
2021/08/19 03:36:10;;;;;;;2.70;2.50;;;19.10;99.90;;;;;;5091417;28;20587;-62
2021/08/19 03:38:38;;;;;;;2.30;1.50;;;19.20;99.90;;;;;;5091233;28;20715;-62
2021/08/19 03:41:05;;;;;;;1.38;1.27;;;19.20;99.90;;;;;;5091247;28;20235;-62
2021/08/19 03:43:31;;;;;;;3.05;1.60;;;19.10;99.90;;;;;;5091105;28;20238;-62
2021/08/19 03:45:59;;;;;;;2.10;1.88;;;19.20;99.90;;;;;;5091160;28;20687;-62
2021/08/19 03:48:26;;;;;;;4.18;3.50;;;19.20;99.90;;;;;;5091109;28;20755;-62
2021/08/19 03:50:53;;;;;;;6.10;1.70;;;19.20;99.90;;;;;;5091494;28;20200;-62
2021/08/19 03:53:19;;;;;;;3.28;1.92;;;19.20;99.90;;;;;;5091157;28;20205;-62
2021/08/19 03:55:46;;;;;;;1.83;1.50;;;19.20;99.90;;;;;;5090787;28;20621;-62
2021/08/19 03:58:13;;;;;;;2.33;1.88;;;19.20;99.90;;;;;;5090760;28;20228;-62
2021/08/19 04:00:39;;;;;;;7.22;4.82;;;19.20;99.90;;;;;;5091079;28;20224;-62
2021/08/19 04:03:07;;;;;;;2.70;1.63;;;19.10;99.90;;;;;;5090854;28;20404;-62
2021/08/19 04:05:34;;;;;;;3.47;3.17;;;19.10;99.90;;;;;;5090881;28;20200;-62
2021/08/19 04:08:01;;;;;;;7.15;3.28;;;19.20;99.90;;;;;;5090420;28;20235;-62
2021/08/19 04:10:27;;;;;;;3.40;1.70;;;19.20;99.90;;;;;;5091246;28;20211;-62
2021/08/19 04:12:54;;;;;;;3.80;3.30;;;19.10;99.90;;;;;;5091112;28;20204;-62
2021/08/19 04:15:21;;;;;;;7.60;5.30;;;19.10;99.90;;;;;;5090805;28;20212;-62
2021/08/19 04:17:48;;;;;;;2.03;1.83;;;19.10;99.90;;;;;;5090572;28;20224;-62
2021/08/19 04:20:16;;;;;;;3.85;3.40;;;19.10;99.90;;;;;;5090556;28;20255;-62
2021/08/19 04:22:42;;;;;;;2.42;1.65;;;19.10;99.90;;;;;;5090879;28;20208;-62
2021/08/19 04:25:10;;;;;;;3.70;2.20;;;19.10;99.90;;;;;;5090780;28;20204;-62
2021/08/19 04:27:37;;;;;;;6.50;3.63;;;19.10;99.90;;;;;;5090572;28;20729;-62
2021/08/19 04:30:04;;;;;;;2.15;1.70;;;19.10;99.90;;;;;;5090577;28;20200;-62
2021/08/19 04:32:31;;;;;;;6.78;4.72;;;19.10;99.90;;;;;;5090537;28;20715;-62
2021/08/19 04:34:58;;;;;;;3.30;1.50;;;19.10;99.90;;;;;;5093477;28;20208;-62
2021/08/19 04:37:26;;;;;;;8.25;5.47;;;19.00;99.90;;;;;;5094490;28;20210;-62
2021/08/19 04:39:53;;;;;;;1.92;1.70;;;19.00;99.90;;;;;;5094519;28;20608;-62
2021/08/19 04:42:20;;;;;;;1.45;1.30;;;19.00;99.90;;;;;;5094404;28;20660;-61
2021/08/19 04:44:46;;;;;;;3.05;1.30;;;18.90;99.90;;;;;;5094327;28;20208;-62
2021/08/19 04:47:13;;;;;;;2.15;1.45;;;18.90;99.90;;;;;;5094681;28;20317;-62
2021/08/19 04:49:40;;;;;;;4.18;1.30;;;18.80;99.90;;;;;;5094223;28;20564;-62
2021/08/19 04:52:07;;;;;;;5.43;2.00;;;18.80;99.90;;;;;;5094618;28;20204;-62
2021/08/19 04:54:35;;;;;;;1.58;1.17;;;18.80;99.90;;;;;;5094322;28;20204;-62
2021/08/19 04:57:02;;;;;;;4.22;1.40;;;18.80;99.90;;;;;;5094074;28;20208;-62
2021/08/19 04:59:28;;;;;;;4.38;2.33;;;18.90;99.90;;;;;;5093864;28;20224;-62
2021/08/19 05:01:55;;;;;;;3.65;1.52;;;18.90;99.90;;;;;;5093748;28;20293;-62
2021/08/19 05:04:22;;;;;;;1.70;1.40;;;18.90;99.90;;;;;;5094238;28;20206;-61
2021/08/19 05:06:48;;;;;;;3.28;1.70;;;19.00;99.90;;;;;;5094218;28;20209;-62
2021/08/19 05:09:15;;;;;;;2.65;1.80;;;19.00;99.90;;;;;;5094045;28;20228;-62
2021/08/19 05:11:43;;;;;;;2.65;1.38;;;19.00;99.90;;;;;;5093695;28;20223;-62
2021/08/19 05:14:10;;;;;;;1.85;1.33;;;19.10;99.90;;;;;;5093641;28;20212;-62
2021/08/19 05:16:37;;;;;;;2.65;1.40;;;19.20;99.90;;;;;;5093558;28;20627;-62
2021/08/19 05:19:03;;;;;;;2.83;2.00;;;19.30;99.90;;;;;;5093926;28;20224;-62
2021/08/19 05:21:30;;;;;;;1.45;1.23;;;19.40;99.90;;;;;;5093665;28;20228;-62
2021/08/19 05:23:57;;;;;;;1.98;1.33;;;19.50;99.90;;;;;;5093686;28;20624;-62
2021/08/19 05:26:24;;;;;;;2.70;1.85;;;19.50;99.90;;;;;;5093549;28;20559;-62
2021/08/19 05:28:52;;;;;;;3.40;2.00;;;19.60;99.90;;;;;;5093241;28;20235;-62
2021/08/19 05:31:19;;;;;;;2.65;1.40;;;19.70;99.90;;;;;;5093349;28;20625;-62
2021/08/19 05:33:47;;;;;;;2.33;1.30;;;19.70;99.90;;;;;;5093391;28;20231;-62
2021/08/19 05:36:15;;;;;;;1.85;1.55;;;19.80;99.90;;;;;;5093429;28;20239;-62
2021/08/19 05:38:42;;;;;;;3.45;2.22;;;19.80;99.90;;;;;;5093080;28;20259;-62
2021/08/19 05:41:09;;;;;;;2.65;1.80;;;19.80;99.90;;;;;;5093109;28;20227;-62
2021/08/19 05:43:36;;;;;;;1.92;1.67;;;19.90;99.90;;;;;;5092838;28;20687;-62
2021/08/19 05:46:06;;;;;;;2.70;1.50;;;20.00;99.90;;;;;;5092965;28;20683;-62
2021/08/19 05:48:32;;;;;;;1.60;1.20;;;20.00;99.90;;;;;;5093031;28;20224;-62
2021/08/19 05:50:59;;;;;;;3.53;1.70;;;19.90;99.90;;;;;;5093252;28;20204;-61
2021/08/19 05:53:26;;;;;;;2.67;1.40;;;19.80;99.90;;;;;;5093186;28;20215;-62
2021/08/19 05:55:53;;;;;;;3.08;1.40;;;19.80;99.90;;;;;;5092985;28;20209;-62
2021/08/19 05:58:19;;;;;;;1.55;1.45;;;19.60;99.90;;;;;;5093469;28;20235;-62
2021/08/19 06:00:47;;;;;;;1.63;1.52;;;19.50;99.90;;;;;;5092833;28;20755;-62
2021/08/19 06:03:15;;;;;;;2.40;1.55;;;19.50;99.90;;;;;;5093114;28;20254;-62
2021/08/19 06:05:42;;;;;;;2.65;1.40;;;19.70;99.90;;;;;;5092980;28;20283;-62
2021/08/19 06:08:08;;;;;;;3.22;1.55;;;19.70;99.90;;;;;;5092928;28;20231;-62
2021/08/19 06:10:35;;;;;;;4.25;1.55;;;19.80;99.90;;;;;;5093089;28;20200;-62
2021/08/19 06:13:02;;;;;;;2.67;1.80;;;19.90;99.90;;;;;;5092605;28;20670;-61
2021/08/19 06:15:29;;;;;;;5.20;1.70;;;20.00;99.90;;;;;;5092727;28;20241;-62
2021/08/19 06:17:56;;;;;;;1.67;1.58;;;20.10;99.90;;;;;;5092314;28;20730;-62
2021/08/19 06:20:24;;;;;;;3.95;1.80;;;20.10;99.90;;;;;;5092254;28;20215;-62
2021/08/19 06:22:52;;;;;;;2.15;1.70;;;20.20;99.90;;;;;;5092586;28;20215;-62
2021/08/19 06:25:19;;;;;;;2.85;1.90;;;20.20;99.90;;;;;;5092157;28;20261;-62
2021/08/19 06:27:47;;;;;;;1.90;1.50;;;20.30;99.90;;;;;;5092433;28;20285;-62
2021/08/19 06:30:14;;;;;;;1.90;1.38;;;20.20;99.90;;;;;;5092656;28;20207;-62
2021/08/19 06:32:42;;;;;;;3.08;1.40;;;20.30;99.90;;;;;;5092520;28;20211;-62
2021/08/19 06:35:09;;;;;;;3.28;2.05;;;20.40;99.90;;;;;;5092028;28;20575;-62
2021/08/19 06:37:37;;;;;;;3.03;1.77;;;20.60;99.90;;;;;;5091896;28;20236;-62
2021/08/19 06:40:06;;;;;;;2.60;2.30;;;20.80;99.90;;;;;;5091947;28;20212;-62
2021/08/19 06:42:33;;;;;;;2.00;1.65;;;21.00;99.90;;;;;;5092048;28;20224;-62
2021/08/19 06:45:00;;;;;;;1.98;1.58;;;21.10;99.90;;;;;;5091918;28;20208;-62
2021/08/19 06:47:26;;;;;;;2.45;1.30;;;21.20;99.90;;;;;;5092374;28;20212;-58
2021/08/19 06:49:53;;;;;;;1.88;1.65;;;21.50;99.90;;;;;;5091819;28;20207;-58
2021/08/19 06:52:20;;;;;;;2.22;1.67;;;21.50;99.90;;;;;;5091828;28;20203;-60
2021/08/19 06:54:48;;;;;;;2.72;2.33;;;21.60;99.90;;;;;;5091859;28;20227;-58
2021/08/19 06:57:14;;;;;;;3.85;2.13;;;21.80;99.90;;;;;;5091304;28;20217;-58
2021/08/19 06:59:41;;;;;;;2.50;1.90;;;21.60;99.90;;;;;;5091551;28;20200;-58
2021/08/19 07:02:08;;;;;;;5.38;1.60;;;21.60;99.90;;;;;;5091623;28;20654;-58
2021/08/19 07:04:34;;;;;;;3.95;1.40;;;22.00;99.90;;;;;;5091589;28;20626;-60
2021/08/19 07:07:01;;;;;;;1.90;1.52;;;22.40;99.90;;;;;;5091736;28;20208;-59
2021/08/19 07:09:28;;;;;;;4.00;1.50;;;22.90;99.90;;;;;;5091512;28;20640;-60
2021/08/19 07:11:56;;;;;;;1.88;1.50;;;23.20;99.90;;;;;;5091765;28;20204;-60
2021/08/19 07:14:23;;;;;;;3.83;3.28;;;23.50;99.90;;;;;;5091440;28;20207;-60
2021/08/19 07:16:49;;;;;;;2.53;1.60;;;23.60;99.90;;;;;;5091596;28;20208;-59
2021/08/19 07:19:16;;;;;;;2.10;1.58;;;23.30;99.90;;;;;;5091647;28;20278;-59
2021/08/19 07:21:44;;;;;;;1.77;1.60;;;22.90;99.90;;;;;;5091666;28;20243;-61
2021/08/19 07:24:11;;;;;;;3.60;2.42;;;22.90;99.90;;;;;;5091307;28;20208;-60
2021/08/19 07:26:38;;;;;;;2.22;1.50;;;23.20;99.90;;;;;;5091329;28;20219;-60
2021/08/19 07:29:06;;;;;;;1.60;1.50;;;23.40;99.90;;;;;;5091097;28;20617;-60
2021/08/19 07:31:35;;;;;;;1.60;1.50;;;23.60;99.90;;;;;;5091280;28;20200;-61
2021/08/19 07:34:02;;;;;;;2.78;1.77;;;23.70;99.90;;;;;;5091070;28;20230;-59
2021/08/19 07:36:29;;;;;;;3.72;1.70;;;23.80;99.90;;;;;;5091189;28;20664;-60
2021/08/19 07:38:59;;;;;;;1.90;1.70;;;23.90;99.90;;;;;;5090808;28;20652;-61
2021/08/19 07:41:26;;;;;;;3.78;1.50;;;24.10;99.90;;;;;;5091231;28;20227;-58
2021/08/19 07:43:52;;;;;;;3.95;1.77;;;24.30;99.90;;;;;;5090811;28;20501;-55
2021/08/19 07:46:20;;;;;;;4.80;2.17;;;24.50;99.90;;;;;;5091272;28;20617;-55
2021/08/19 07:48:47;;;;;;;4.88;1.95;;;24.70;99.90;;;;;;5090605;28;20251;-56
2021/08/19 07:51:15;;;;;;;2.85;2.00;;;24.60;99.90;;;;;;5090844;28;20752;-58
2021/08/19 07:53:42;;;;;;;2.30;2.10;;;24.30;99.90;;;;;;5090902;28;20226;-56
2021/08/19 07:56:09;;;;;;;2.00;1.77;;;24.20;99.90;;;;;;5091050;28;20227;-56
2021/08/19 07:58:36;;;;;;;2.22;1.73;;;24.10;99.90;;;;;;5091010;28;20228;-54
2021/08/19 08:01:03;;;;;;;2.70;1.90;;;24.10;99.90;;;;;;5090633;28;20208;-57
2021/08/19 08:03:31;;;;;;;1.83;1.63;;;24.20;99.90;;;;;;5090900;28;20227;-57
2021/08/19 08:05:57;;;;;;;2.20;1.73;;;24.30;99.90;;;;;;5090920;28;20207;-55
2021/08/19 08:08:24;;;;;;;4.45;1.70;;;24.50;99.90;;;;;;5090894;28;20235;-55
2021/08/19 08:10:51;;;;;;;2.80;2.30;;;24.70;99.90;;;;;;5095053;28;20626;-55
2021/08/19 08:13:18;;;;;;;3.88;1.60;;;24.90;99.90;;;;;;5094807;28;20211;-56
2021/08/19 08:15:44;;;;;;;2.22;1.67;;;25.00;99.90;;;;;;5094963;28;20235;-57
2021/08/19 08:18:15;;;;;;;2.50;1.60;;;25.20;99.90;;;;;;5094900;28;20238;-55
2021/08/19 08:20:44;;;;;;;2.55;1.75;;;25.50;99.90;;;;;;5095040;28;20208;-58
2021/08/19 08:23:11;;;;;;;2.20;1.77;;;25.80;99.90;;;;;;5094694;28;20293;-55
2021/08/19 08:25:38;;;;;;;2.05;1.60;;;25.70;99.90;;;;;;5094928;28;20232;-58
2021/08/19 08:28:09;;;;;;;2.17;1.63;;;25.60;99.90;;;;;;5095032;28;20219;-55
2021/08/19 08:30:37;;;;;;;2.25;1.90;;;25.40;99.90;;;;;;5094918;28;20208;-58
2021/08/19 08:33:04;;;;;;;4.80;2.10;;;24.80;99.90;;;;;;5094907;28;20209;-55
2021/08/19 08:35:34;;;;;;;2.72;1.52;;;24.10;99.90;;;;;;5094611;28;20215;-55
2021/08/19 08:38:03;;;;;;;3.72;2.10;;;23.70;99.90;;;;;;5094241;28;20238;-56
2021/08/19 08:40:33;;;;;;;1.90;1.70;;;23.40;99.90;;;;;;5094587;28;20207;-56
2021/08/19 08:42:59;;;;;;;2.83;1.70;;;23.40;99.90;;;;;;5094307;28;20235;-56
2021/08/19 08:45:27;;;;;;;3.47;2.33;;;23.30;99.90;;;;;;5094425;28;20622;-56
2021/08/19 08:47:54;;;;;;;3.67;2.40;;;23.10;99.90;;;;;;5094288;28;20289;-56
2021/08/19 08:50:21;;;;;;;2.30;1.38;;;23.20;99.90;;;;;;5094268;28;20200;-55
2021/08/19 08:52:48;;;;;;;2.13;1.60;;;23.40;99.90;;;;;;5094412;28;20204;-56
2021/08/19 08:55:16;;;;;;;4.75;1.83;;;23.60;99.90;;;;;;5093934;28;20211;-55
2021/08/19 08:57:43;;;;;;;5.70;1.98;;;24.00;99.90;;;;;;5093962;28;20262;-55
2021/08/19 09:00:10;;;;;;;3.08;2.00;;;24.40;99.90;;;;;;5094189;28;20231;-55
2021/08/19 09:02:37;;;;;;;3.25;1.63;;;24.80;99.90;;;;;;5094139;28;20220;-56
2021/08/19 09:05:15;;;;;;;2.72;1.50;;;25.00;99.90;;;;;;5093819;28;20249;-56
2021/08/19 09:07:42;;;;;;;1.55;1.20;;;25.10;99.90;;;;;;5093520;28;20277;-57
2021/08/19 09:10:12;;;;;;;3.15;1.85;;;25.30;99.90;;;;;;5093716;28;20663;-55
2021/08/19 09:12:41;;;;;;;1.80;1.58;;;25.70;99.90;;;;;;5093726;28;20291;-55
2021/08/19 09:15:11;;;;;;;2.55;1.50;;;26.00;99.90;;;;;;5093726;28;20208;-56
2021/08/19 09:17:42;;;;;;;2.70;1.45;;;26.10;99.90;;;;;;5093773;28;20227;-55
2021/08/19 09:20:10;;;;;;;2.85;2.10;;;26.10;99.90;;;;;;5093131;28;20215;-56
2021/08/19 09:22:54;;;;;;;1.83;1.40;;;26.30;99.90;;;;;;5093713;28;20224;-56
2021/08/19 09:25:30;;;;;;;4.90;1.20;;;26.70;99.90;;;;;;5093549;28;20204;-55
2021/08/19 09:28:11;;;;;;;1.77;1.20;;;27.00;99.90;;;;;;5093434;28;20227;-55
2021/08/19 09:30:39;;;;;;;2.13;1.58;;;26.60;99.90;;;;;;5075420;28;20910;-59
2021/08/19 09:33:08;;;;;;;2.70;1.65;;;26.60;99.90;;;;;;5073408;28;20627;-60
2021/08/19 09:35:35;;;;;;;3.67;1.85;;;27.00;99.90;;;;;;5073239;28;20212;-58
2021/08/19 09:38:06;;;;;;;5.18;1.52;;;27.50;99.90;;;;;;5073558;28;20243;-59
2021/08/19 09:40:33;;;;;;;3.30;1.67;;;27.90;99.90;;;;;;5072905;28;20244;-59
2021/08/19 09:43:00;;;;;;;2.78;1.90;;;28.30;99.90;;;;;;5072869;28;20726;-59
2021/08/19 09:45:28;;;;;;;2.33;1.65;;;28.70;99.90;;;;;;5072670;28;20212;-60
2021/08/19 09:48:07;;;;;;;3.53;2.13;;;28.80;99.90;;;;;;5072856;28;20225;-59
2021/08/19 09:50:34;;;;;;;5.82;2.80;;;28.80;99.90;;;;;;5072913;28;20287;-60
2021/08/19 09:53:16;;;;;;;1.75;1.55;;;28.60;99.90;;;;;;5073284;28;20255;-61
2021/08/19 09:55:43;;;;;;;2.90;1.80;;;28.30;99.90;;;;;;5074366;28;20290;-61
2021/08/19 09:58:10;;;;;;;2.97;2.55;;;28.00;99.90;;;;;;5072332;28;20708;-61
2021/08/19 10:00:40;;;;;;;4.65;1.55;;;27.80;99.90;;;;;;5072676;28;20216;-60
2021/08/19 10:03:08;;;;;;;3.40;1.50;;;27.60;99.90;;;;;;5072620;28;20225;-60
2021/08/19 10:05:35;;;;;;;2.17;1.52;;;27.60;99.90;;;;;;5072212;28;20652;-60
2021/08/19 10:08:02;;;;;;;1.52;1.42;;;27.50;99.90;;;;;;5071746;28;20224;-59
2021/08/19 10:10:29;;;;;;;2.67;0.93;;;27.70;99.90;;;;;;5072180;28;20212;-60
2021/08/19 10:13:01;;;;;;;2.97;1.70;;;28.00;99.90;;;;;;5072144;28;20197;-61
2021/08/19 10:15:29;;;;;;;2.35;1.02;;;28.40;99.00;;;;;;5072296;28;20291;-57
2021/08/19 10:17:59;;;;;;;3.67;1.77;;;28.60;98.10;;;;;;5071664;28;20640;-57
2021/08/19 10:20:29;;;;;;;2.65;0.93;;;28.90;97.30;;;;;;5072138;28;20212;-58
2021/08/19 10:22:58;;;;;;;1.27;1.02;;;29.10;95.90;;;;;;5071748;28;20266;-62
2021/08/19 10:25:26;;;;;;;10.85;4.80;;;29.30;95.00;;;;;;5072025;28;20205;-60
2021/08/19 10:28:16;;;;;;;3.95;1.67;;;29.40;95.00;;;;;;5071726;28;20224;-58
2021/08/19 10:30:51;;;;;;;2.08;0.80;;;29.60;94.20;;;;;;5071512;28;20672;-57
2021/08/19 10:33:45;;;;;;;3.22;1.80;;;29.70;93.00;;;;;;5071388;28;20211;-57
2021/08/19 10:36:49;;;;;;;2.08;1.35;;;29.80;93.70;;;;;;5071781;28;20628;-58
2021/08/19 10:39:38;;;;;;;1.60;1.00;;;29.80;91.50;;;;;;5072050;28;20239;-57
2021/08/19 10:42:27;;;;;;;2.05;1.20;;;29.80;90.50;;;;;;5071872;28;20319;-58
2021/08/19 10:44:54;;;;;;;2.60;1.10;;;29.50;91.40;;;;;;5071484;28;20209;-58
2021/08/19 10:47:36;;;;;;;2.42;1.40;;;29.20;91.10;;;;;;5071478;28;20209;-57
2021/08/19 10:50:31;;;;;;;1.83;0.90;;;28.80;92.00;;;;;;5071896;28;20201;-58
2021/08/19 10:53:10;;;;;;;1.95;1.67;;;28.40;92.70;;;;;;5071365;28;20568;-57
2021/08/19 10:55:41;;;;;;;1.58;1.13;;;28.00;93.60;;;;;;5071445;28;20631;-57
2021/08/19 10:58:26;;;;;;;3.80;2.22;;;27.60;94.30;;;;;;5071293;28;20225;-58
2021/08/19 11:00:54;;;;;;;1.33;1.13;;;27.20;95.50;;;;;;5071351;28;20669;-57
2021/08/19 11:03:43;;;;;;;2.95;1.70;;;26.80;95.10;;;;;;5071502;28;20225;-57
2021/08/19 11:06:13;;;;;;;1.38;1.10;;;26.50;96.10;;;;;;5071485;28;20216;-58
2021/08/19 11:08:52;;;;;;;1.15;1.02;;;26.40;96.80;;;;;;5071351;28;20236;-57
2021/08/19 11:11:31;;;;;;;2.45;1.90;;;26.20;97.00;;;;;;5071639;28;20212;-57
2021/08/19 11:14:00;;;;;;;1.90;1.63;;;26.30;97.30;;;;;;5071142;28;20205;-58
2021/08/19 11:16:27;;;;;;;2.10;0.98;;;26.30;96.80;;;;;;5071257;28;20295;-57
2021/08/19 11:18:54;;;;;;;2.60;1.60;;;26.40;97.50;;;;;;5070715;28;20232;-57
2021/08/19 11:21:22;;;;;;;3.20;1.67;;;26.40;97.40;;;;;;5071224;28;20208;-57
2021/08/19 11:23:50;;;;;;;1.70;1.05;;;26.40;97.30;;;;;;5070783;28;20644;-58
2021/08/19 11:26:19;;;;;;;3.00;1.80;;;26.40;96.90;;;;;;5071021;28;20209;-57
2021/08/19 11:28:48;;;;;;;2.85;1.80;;;26.50;97.20;;;;;;5070756;28;20236;-57
2021/08/19 11:31:19;;;;;;;3.08;1.40;;;26.50;97.30;;;;;;5070788;28;20685;-57
2021/08/19 11:33:47;;;;;;;3.05;1.50;;;26.60;96.70;;;;;;5071075;28;20259;-57
2021/08/19 11:36:15;;;;;;;2.53;1.27;;;26.50;97.20;;;;;;5071093;28;20200;-58
2021/08/19 11:38:44;;;;;;;3.05;1.30;;;26.50;97.40;;;;;;5070755;28;20239;-56
2021/08/19 11:41:20;;;;;;;2.53;1.25;;;26.50;97.30;;;;;;5070752;28;20212;-56
2021/08/19 11:43:47;;;;;;;1.67;1.25;;;26.50;97.40;;;;;;5070233;28;20220;-55
2021/08/19 11:46:19;;;;;;;2.75;1.40;;;26.70;97.40;;;;;;5070323;28;20205;-56
2021/08/19 11:48:51;;;;;;;3.00;1.60;;;26.80;97.60;;;;;;5070540;28;20253;-56
2021/08/19 11:51:29;;;;;;;1.50;1.27;;;27.10;96.90;;;;;;5070850;28;20234;-56
2021/08/19 11:54:00;;;;;;;1.67;1.30;;;27.20;95.70;;;;;;5070697;28;20747;-56
2021/08/19 11:56:30;;;;;;;1.73;1.30;;;27.40;95.40;;;;;;5070576;28;20629;-56
2021/08/19 11:59:02;;;;;;;3.65;1.50;;;27.50;95.20;;;;;;5070544;28;20224;-55
2021/08/19 12:01:30;;;;;;;1.45;1.23;;;27.70;95.00;;;;;;5070579;28;20632;-57
2021/08/19 12:03:58;;;;;;;1.50;1.20;;;27.90;94.50;;;;;;5070297;28;20228;-55
2021/08/19 12:06:27;;;;;;;1.92;1.20;;;28.00;94.10;;;;;;5070526;28;20261;-57
2021/08/19 12:08:56;;;;;;;2.40;1.80;;;27.90;94.60;;;;;;5070296;28;20231;-57
2021/08/19 12:11:26;;;;;;;1.77;1.27;;;28.10;94.20;;;;;;5070711;28;20209;-56
2021/08/19 12:13:54;;;;;;;5.35;1.40;;;28.40;93.60;;;;;;5070474;28;20201;-56
2021/08/19 12:16:22;;;;;;;1.45;1.23;;;28.70;93.20;;;;;;5070298;28;20668;-56
2021/08/19 12:19:08;;;;;;;3.92;1.50;;;28.90;92.40;;;;;;5070061;28;20224;-56
2021/08/19 12:21:37;;;;;;;1.30;1.20;;;29.20;91.80;;;;;;5070302;28;20209;-56
2021/08/19 12:24:13;;;;;;;2.00;1.23;;;29.40;91.40;;;;;;5070630;28;20286;-56
2021/08/19 12:26:42;;;;;;;2.28;1.20;;;29.50;91.10;;;;;;5070648;28;20236;-57
2021/08/19 12:29:18;;;;;;;2.72;1.42;;;29.50;90.80;;;;;;5070332;28;20228;-56
2021/08/19 12:31:47;;;;;;;1.33;1.23;;;29.50;90.60;;;;;;5070256;28;20236;-57
2021/08/19 12:34:13;;;;;;;3.47;1.50;;;29.50;90.70;;;;;;5070404;28;20207;-56
2021/08/19 12:36:40;;;;;;;2.20;1.80;;;29.60;90.60;;;;;;5070275;28;20708;-57
2021/08/19 12:39:24;;;;;;;4.22;1.67;;;29.50;91.00;;;;;;5070245;28;20237;-56
2021/08/19 12:42:06;;;;;;;1.85;1.50;;;29.60;90.70;;;;;;5071316;28;20208;-57
2021/08/19 12:44:33;;;;;;;1.40;1.30;;;29.40;91.00;;;;;;5070229;28;20225;-56
2021/08/19 12:46:59;;;;;;;2.15;1.30;;;29.20;91.00;;;;;;5070388;28;20212;-56
2021/08/19 12:49:31;;;;;;;1.77;1.23;;;29.20;90.70;;;;;;5070158;28;20225;-57
2021/08/19 12:52:21;;;;;;;3.88;2.42;;;29.40;90.00;;;;;;5070244;28;20212;-57
2021/08/19 12:55:09;;;;;;;1.80;1.50;;;29.50;89.50;;;;;;5070859;28;20213;-56
2021/08/19 12:57:42;;;;;;;3.45;1.50;;;29.70;88.40;;;;;;5073976;28;20247;-56